createdAt,value
2018-04-19T00:00:49.187Z,9.30
2018-04-19T00:01:49.178Z,10.50
2018-04-19T00:02:49.169Z,9.20
2018-04-19T00:03:49.160Z,10.10
2018-04-19T00:04:49.153Z,9.60
2018-04-19T00:05:49.147Z,9.50
2018-04-19T00:06:49.145Z,9.50
2018-04-19T00:07:49.133Z,9.90
2018-04-19T00:08:49.123Z,10.30
2018-04-19T00:09:49.115Z,9.80
2018-04-19T00:10:49.108Z,9.90
2018-04-19T00:11:49.165Z,9.60
2018-04-19T00:12:49.100Z,11.20
2018-04-19T00:13:49.089Z,10.00
2018-04-19T00:14:49.081Z,9.70
2018-04-19T00:15:49.076Z,9.50
2018-04-19T00:16:49.064Z,10.40
2018-04-19T00:17:49.058Z,9.80
2018-04-19T00:18:49.050Z,9.70
2018-04-19T00:19:49.044Z,10.10
2018-04-19T00:20:49.040Z,9.80
2018-04-19T00:21:49.030Z,9.80
2018-04-19T00:22:49.030Z,9.90
2018-04-19T00:23:49.016Z,10.10
2018-04-19T00:24:49.013Z,9.90
2018-04-19T00:25:49.002Z,10.60
2018-04-19T00:26:48.994Z,10.50
2018-04-19T00:27:48.984Z,10.00
2018-04-19T00:28:48.978Z,10.00
2018-04-19T00:29:48.973Z,9.30
2018-04-19T00:30:48.969Z,8.70
2018-04-19T00:31:48.962Z,9.40
2018-04-19T00:32:48.954Z,10.10
2018-04-19T00:33:48.940Z,9.60
2018-04-19T00:34:48.939Z,9.50
2018-04-19T00:35:48.925Z,9.80
2018-04-19T00:36:48.920Z,9.90
2018-04-19T00:37:48.912Z,9.20
2018-04-19T00:38:48.905Z,9.90
2018-04-19T00:39:48.899Z,9.00
2018-04-19T00:40:48.889Z,9.10
2018-04-19T00:41:48.892Z,8.90
2018-04-19T00:42:48.875Z,9.70
2018-04-19T00:43:48.869Z,9.30
2018-04-19T00:44:48.859Z,8.90
2018-04-19T00:45:48.853Z,8.70
2018-04-19T00:46:48.857Z,8.80
2018-04-19T00:47:48.838Z,10.00
2018-04-19T00:48:48.830Z,10.30
2018-04-19T00:49:48.823Z,8.70
2018-04-19T00:50:48.818Z,8.70
2018-04-19T00:51:48.807Z,8.90
2018-04-19T00:52:48.806Z,8.80
2018-04-19T00:53:48.794Z,9.60
2018-04-19T00:54:48.789Z,9.40
2018-04-19T00:55:48.782Z,8.50
2018-04-19T00:56:48.781Z,9.70
2018-04-19T00:57:48.772Z,10.50
2018-04-19T00:58:48.758Z,9.40
2018-04-19T00:59:48.747Z,8.80
2018-04-19T01:00:48.747Z,9.80
2018-04-19T01:01:48.734Z,10.20
2018-04-19T01:02:48.726Z,9.10
2018-04-19T01:04:48.717Z,9.30
2018-04-19T01:05:48.708Z,9.00
2018-04-19T01:06:48.701Z,8.90
2018-04-19T01:07:48.695Z,8.60
2018-04-19T01:08:48.686Z,9.00
2018-04-19T01:09:48.693Z,9.10
2018-04-19T01:10:48.671Z,9.30
2018-04-19T01:11:48.661Z,9.90
2018-04-19T01:12:48.655Z,9.40
2018-04-19T01:13:48.646Z,9.10
2018-04-19T01:14:48.639Z,8.80
2018-04-19T01:15:48.632Z,9.30
2018-04-19T01:16:48.622Z,9.30
2018-04-19T01:17:48.616Z,10.20
2018-04-19T01:18:48.609Z,9.60
2018-04-19T01:19:48.600Z,9.60
2018-04-19T01:20:48.590Z,9.10
2018-04-19T01:21:48.583Z,8.60
2018-04-19T01:22:48.576Z,9.60
2018-04-19T01:23:48.573Z,10.50
2018-04-19T01:24:48.561Z,10.90
2018-04-19T01:25:48.554Z,9.60
2018-04-19T01:26:48.543Z,9.20
2018-04-19T01:28:48.529Z,10.50
2018-04-19T01:29:48.520Z,9.60
2018-04-19T01:30:48.512Z,9.60
2018-04-19T01:31:48.506Z,10.30
2018-04-19T01:32:48.494Z,9.40
2018-04-19T01:33:48.488Z,9.70
2018-04-19T01:34:48.484Z,10.70
2018-04-19T01:35:48.473Z,11.00
2018-04-19T01:36:48.464Z,9.90
2018-04-19T01:37:48.456Z,9.90
2018-04-19T01:38:48.447Z,9.00
2018-04-19T01:39:48.438Z,10.50
2018-04-19T01:40:48.432Z,9.50
2018-04-19T01:41:48.423Z,10.30
2018-04-19T01:42:48.416Z,9.90
2018-04-19T01:43:48.405Z,9.80
2018-04-19T01:44:48.402Z,9.60
2018-04-19T01:45:48.391Z,9.50
2018-04-19T01:46:48.382Z,9.30
2018-04-19T01:47:48.373Z,9.20
2018-04-19T01:48:48.367Z,9.50
2018-04-19T01:49:48.361Z,9.80
2018-04-19T01:50:48.353Z,10.70
2018-04-19T01:51:48.339Z,10.10
2018-04-19T01:52:48.330Z,10.00
2018-04-19T01:53:48.325Z,9.70
2018-04-19T01:54:48.318Z,9.70
2018-04-19T01:55:48.308Z,10.20
2018-04-19T01:56:48.298Z,9.80
2018-04-19T01:57:48.293Z,8.80
2018-04-19T01:58:48.284Z,10.10
2018-04-19T01:59:48.277Z,11.60
2018-04-19T02:00:48.265Z,9.70
2018-04-19T02:01:48.256Z,10.20
2018-04-19T02:02:48.249Z,10.40
2018-04-19T02:03:48.242Z,10.30
2018-04-19T02:04:48.231Z,9.50
2018-04-19T02:05:48.222Z,10.00
2018-04-19T02:06:48.217Z,10.20
2018-04-19T02:07:48.208Z,10.00
2018-04-19T02:08:48.199Z,10.20
2018-04-19T02:09:48.193Z,8.60
2018-04-19T02:10:48.179Z,9.50
2018-04-19T02:11:48.176Z,10.00
2018-04-19T02:12:48.165Z,10.20
2018-04-19T02:13:48.157Z,10.20
2018-04-19T02:14:48.147Z,10.30
2018-04-19T02:15:48.142Z,10.00
2018-04-19T02:16:48.128Z,10.50
2018-04-19T02:17:48.121Z,10.70
2018-04-19T02:18:48.117Z,11.10
2018-04-19T02:19:48.101Z,10.70
2018-04-19T02:20:48.095Z,9.10
2018-04-19T02:21:48.088Z,9.60
2018-04-19T02:22:48.078Z,10.30
2018-04-19T02:23:48.069Z,10.00
2018-04-19T02:24:48.060Z,9.60
2018-04-19T02:25:48.053Z,8.60
2018-04-19T02:26:48.044Z,8.70
2018-04-19T02:27:48.033Z,9.50
2018-04-19T02:28:48.028Z,8.80
2018-04-19T02:29:48.016Z,8.60
2018-04-19T02:30:48.010Z,9.70
2018-04-19T02:31:48.003Z,9.30
2018-04-19T02:32:47.991Z,8.50
2018-04-19T02:33:47.982Z,9.00
2018-04-19T02:34:47.972Z,9.30
2018-04-19T02:35:48.037Z,8.90
2018-04-19T02:36:47.958Z,9.20
2018-04-19T02:37:47.948Z,9.30
2018-04-19T02:38:47.940Z,8.40
2018-04-19T02:39:47.931Z,9.90
2018-04-19T02:40:47.922Z,10.50
2018-04-19T02:41:47.914Z,10.40
2018-04-19T02:42:47.905Z,10.50
2018-04-19T02:43:47.892Z,9.50
2018-04-19T02:44:47.886Z,10.00
2018-04-19T02:45:47.876Z,9.50
2018-04-19T02:46:47.867Z,10.70
2018-04-19T02:47:47.860Z,11.30
2018-04-19T02:48:47.853Z,11.10
2018-04-19T02:49:47.844Z,10.90
2018-04-19T02:50:47.833Z,10.60
2018-04-19T02:51:47.847Z,10.00
2018-04-19T02:52:47.813Z,10.80
2018-04-19T02:53:47.805Z,10.20
2018-04-19T02:54:47.799Z,11.10
2018-04-19T02:55:47.786Z,10.70
2018-04-19T02:56:47.778Z,12.40
2018-04-19T02:57:47.799Z,11.00
2018-04-19T02:58:47.760Z,12.00
2018-04-19T02:59:47.750Z,11.60
2018-04-19T03:00:47.740Z,11.70
2018-04-19T03:01:47.737Z,12.50
2018-04-19T03:02:47.727Z,11.70
2018-04-19T03:03:47.716Z,11.40
2018-04-19T03:04:47.708Z,11.40
2018-04-19T03:05:47.700Z,11.20
2018-04-19T03:06:47.689Z,11.00
2018-04-19T03:07:47.679Z,11.10
2018-04-19T03:08:47.671Z,11.10
2018-04-19T03:09:47.912Z,10.70
2018-04-19T03:10:47.654Z,11.00
2018-04-19T03:11:47.648Z,11.50
2018-04-19T03:12:47.633Z,9.70
2018-04-19T03:13:47.627Z,10.10
2018-04-19T03:14:47.619Z,9.90
2018-04-19T03:15:47.607Z,9.10
2018-04-19T03:16:47.603Z,9.20
2018-04-19T03:17:47.588Z,9.80
2018-04-19T03:18:47.579Z,8.90
2018-04-19T03:19:47.571Z,8.20
2018-04-19T03:20:47.565Z,8.20
2018-04-19T03:21:47.562Z,8.30
2018-04-19T03:22:47.543Z,7.20
2018-04-19T03:23:47.535Z,7.30
2018-04-19T03:24:47.526Z,8.20
2018-04-19T03:25:47.517Z,8.00
2018-04-19T03:26:47.508Z,8.40
2018-04-19T03:27:47.500Z,7.50
2018-04-19T03:28:47.487Z,7.50
2018-04-19T03:29:47.482Z,8.10
2018-04-19T03:30:47.469Z,9.50
2018-04-19T03:31:47.461Z,8.90
2018-04-19T03:32:47.451Z,8.80
2018-04-19T03:33:47.442Z,8.50
2018-04-19T03:34:47.435Z,8.60
2018-04-19T03:35:47.426Z,8.50
2018-04-19T03:36:47.412Z,8.20
2018-04-19T03:37:47.406Z,8.50
2018-04-19T03:38:47.399Z,7.60
2018-04-19T03:39:47.388Z,8.40
2018-04-19T03:40:47.384Z,8.00
2018-04-19T03:41:47.366Z,8.50
2018-04-19T03:42:47.358Z,8.20
2018-04-19T03:43:47.349Z,8.00
2018-04-19T03:44:47.342Z,8.40
2018-04-19T03:45:47.334Z,8.40
2018-04-19T03:46:47.321Z,8.60
2018-04-19T03:47:47.310Z,8.10
2018-04-19T03:48:47.301Z,8.50
2018-04-19T03:49:47.294Z,8.60
2018-04-19T03:50:47.283Z,8.50
2018-04-19T03:51:47.272Z,8.80
2018-04-19T03:52:47.266Z,8.90
2018-04-19T03:53:47.255Z,8.20
2018-04-19T03:54:47.245Z,8.20
2018-04-19T03:55:47.238Z,8.90
2018-04-19T03:56:47.230Z,8.00
2018-04-19T03:57:47.217Z,8.60
2018-04-19T03:58:47.211Z,8.40
2018-04-19T03:59:47.201Z,8.20
2018-04-19T04:00:47.189Z,8.60
2018-04-19T04:01:47.182Z,8.70
2018-04-19T04:02:47.170Z,9.60
2018-04-19T04:03:47.160Z,9.50
2018-04-19T04:04:47.152Z,9.50
2018-04-19T04:05:47.148Z,9.70
2018-04-19T04:06:47.131Z,9.30
2018-04-19T04:07:47.122Z,9.50
2018-04-19T04:08:47.115Z,9.10
2018-04-19T04:09:47.103Z,9.10
2018-04-19T04:10:47.095Z,9.20
2018-04-19T04:11:47.083Z,9.30
2018-04-19T04:12:47.074Z,9.20
2018-04-19T04:13:47.067Z,9.30
2018-04-19T04:14:47.054Z,9.20
2018-04-19T04:15:47.049Z,8.60
2018-04-19T04:16:47.035Z,9.40
2018-04-19T04:17:47.027Z,9.00
2018-04-19T04:18:47.016Z,9.20
2018-04-19T04:19:47.007Z,8.90
2018-04-19T04:20:46.997Z,9.20
2018-04-19T04:21:46.987Z,9.30
2018-04-19T04:22:46.980Z,9.10
2018-04-19T04:23:46.967Z,9.30
2018-04-19T04:24:46.958Z,9.20
2018-04-19T04:25:46.946Z,9.20
2018-04-19T04:26:46.942Z,9.50
2018-04-19T04:27:46.933Z,8.80
2018-04-19T04:28:46.917Z,9.20
2018-04-19T04:29:46.914Z,9.60
2018-04-19T04:30:46.900Z,9.30
2018-04-19T04:31:46.890Z,9.80
2018-04-19T04:32:46.879Z,9.20
2018-04-19T04:33:46.870Z,10.40
2018-04-19T04:34:46.861Z,9.90
2018-04-19T04:35:46.852Z,10.80
2018-04-19T04:36:46.839Z,10.90
2018-04-19T04:37:46.833Z,10.50
2018-04-19T04:38:46.819Z,10.70
2018-04-19T04:39:46.809Z,10.10
2018-04-19T04:40:46.802Z,10.80
2018-04-19T04:41:46.790Z,9.80
2018-04-19T04:42:46.783Z,10.40
2018-04-19T04:43:46.771Z,10.00
2018-04-19T04:44:46.760Z,9.80
2018-04-19T04:45:46.750Z,10.50
2018-04-19T04:46:46.745Z,10.40
2018-04-19T04:47:46.747Z,10.40
2018-04-19T04:48:46.724Z,10.10
2018-04-19T04:49:46.714Z,10.30
2018-04-19T04:50:46.703Z,10.70
2018-04-19T04:51:46.695Z,10.10
2018-04-19T04:52:46.682Z,11.00
2018-04-19T04:53:46.673Z,11.10
2018-04-19T04:54:46.665Z,11.70
2018-04-19T04:55:46.654Z,11.50
2018-04-19T04:56:46.647Z,11.40
2018-04-19T04:57:46.640Z,10.70
2018-04-19T04:58:46.625Z,11.00
2018-04-19T04:59:46.614Z,10.90
2018-04-19T05:00:46.606Z,11.10
2018-04-19T05:01:46.596Z,10.50
2018-04-19T05:02:46.584Z,11.60
2018-04-19T05:03:46.576Z,11.10
2018-04-19T05:04:46.569Z,10.80
2018-04-19T05:05:46.611Z,10.40
2018-04-19T05:06:46.548Z,10.60
2018-04-19T05:07:46.536Z,10.20
2018-04-19T05:08:46.531Z,9.50
2018-04-19T05:09:46.516Z,9.30
2018-04-19T05:10:46.509Z,10.20
2018-04-19T05:11:46.496Z,9.50
2018-04-19T05:12:46.488Z,9.70
2018-04-19T05:13:46.479Z,9.90
2018-04-19T05:14:46.470Z,10.00
2018-04-19T05:15:46.458Z,10.20
2018-04-19T05:16:46.456Z,10.20
2018-04-19T05:17:46.442Z,10.70
2018-04-19T05:18:46.433Z,10.20
2018-04-19T05:19:46.424Z,10.80
2018-04-19T05:20:46.414Z,10.90
2018-04-19T05:21:46.407Z,9.90
2018-04-19T05:22:46.397Z,10.60
2018-04-19T05:23:46.384Z,10.40
2018-04-19T05:24:46.380Z,10.80
2018-04-19T05:25:46.371Z,10.70
2018-04-19T05:26:46.360Z,10.30
2018-04-19T05:27:46.356Z,10.60
2018-04-19T05:28:46.348Z,10.40
2018-04-19T05:29:46.334Z,10.50
2018-04-19T05:30:46.328Z,10.00
2018-04-19T05:31:46.334Z,10.90
2018-04-19T05:32:46.309Z,10.30
2018-04-19T05:33:46.300Z,11.00
2018-04-19T05:34:46.290Z,10.80
2018-04-19T05:35:46.283Z,10.60
2018-04-19T05:36:46.277Z,10.20
2018-04-19T05:37:46.267Z,9.40
2018-04-19T05:38:46.260Z,10.00
2018-04-19T05:39:46.248Z,9.70
2018-04-19T05:40:46.243Z,9.30
2018-04-19T05:41:46.241Z,9.30
2018-04-19T05:42:46.229Z,9.70
2018-04-19T05:43:46.213Z,9.10
2018-04-19T05:44:46.210Z,8.40
2018-04-19T05:45:46.206Z,9.40
2018-04-19T05:46:46.192Z,9.50
2018-04-19T05:47:46.187Z,9.30
2018-04-19T05:48:46.177Z,9.00
2018-04-19T05:49:46.170Z,9.00
2018-04-19T05:50:46.160Z,9.30
2018-04-19T05:51:46.155Z,10.00
2018-04-19T05:52:46.144Z,9.80
2018-04-19T05:53:46.138Z,10.30
2018-04-19T05:54:46.131Z,10.20
2018-04-19T05:55:46.122Z,9.80
2018-04-19T05:56:46.112Z,9.90
2018-04-19T05:57:46.108Z,10.30
2018-04-19T05:58:46.103Z,10.50
2018-04-19T05:59:46.095Z,9.40
2018-04-19T06:00:46.085Z,9.30
2018-04-19T06:01:46.078Z,9.20
2018-04-19T06:02:46.075Z,9.40
2018-04-19T06:03:46.065Z,10.20
2018-04-19T06:04:46.055Z,9.90
2018-04-19T06:05:46.049Z,10.20
2018-04-19T06:06:46.043Z,10.40
2018-04-19T06:07:46.032Z,10.30
2018-04-19T06:08:46.027Z,11.20
2018-04-19T06:09:46.019Z,9.70
2018-04-19T06:10:46.019Z,9.90
2018-04-19T06:11:46.006Z,9.20
2018-04-19T06:12:46.002Z,8.70
2018-04-19T06:13:45.992Z,9.70
2018-04-19T06:14:45.984Z,9.60
2018-04-19T06:15:45.979Z,10.10
2018-04-19T06:16:45.974Z,9.80
2018-04-19T06:17:45.965Z,9.80
2018-04-19T06:18:45.956Z,9.50
2018-04-19T06:19:45.953Z,10.40
2018-04-19T06:20:45.947Z,9.80
2018-04-19T06:21:45.936Z,10.40
2018-04-19T06:22:45.934Z,10.40
2018-04-19T06:23:45.925Z,10.40
2018-04-19T06:24:45.919Z,10.90
2018-04-19T06:25:45.915Z,9.90
2018-04-19T06:26:45.909Z,10.80
2018-04-19T06:27:45.899Z,10.20
2018-04-19T06:28:45.893Z,11.60
2018-04-19T06:29:45.887Z,10.80
2018-04-19T06:30:45.880Z,10.40
2018-04-19T06:31:45.881Z,11.00
2018-04-19T06:32:45.869Z,10.70
2018-04-19T06:33:45.866Z,11.10
2018-04-19T06:34:45.866Z,11.30
2018-04-19T06:35:45.849Z,10.10
2018-04-19T06:36:45.844Z,10.30
2018-04-19T06:37:45.836Z,10.70
2018-04-19T06:38:45.832Z,11.00
2018-04-19T06:39:45.823Z,10.10
2018-04-19T06:40:45.818Z,10.10
2018-04-19T06:41:45.811Z,11.50
2018-04-19T06:42:45.808Z,10.40
2018-04-19T06:43:45.799Z,10.60
2018-04-19T06:44:45.796Z,11.50
2018-04-19T06:45:45.785Z,11.10
2018-04-19T06:46:45.783Z,11.10
2018-04-19T06:47:45.779Z,11.10
2018-04-19T06:48:45.771Z,11.20
2018-04-19T06:49:45.763Z,11.70
2018-04-19T06:50:45.759Z,11.40
2018-04-19T06:51:45.751Z,11.30
2018-04-19T06:52:45.746Z,11.30
2018-04-19T06:53:45.742Z,10.90
2018-04-19T06:54:45.737Z,10.70
2018-04-19T06:55:45.728Z,11.30
2018-04-19T06:56:45.725Z,10.80
2018-04-19T06:57:45.716Z,11.80
2018-04-19T06:58:45.716Z,11.40
2018-04-19T06:59:45.707Z,11.60
2018-04-19T07:00:45.704Z,11.10
2018-04-19T07:01:45.696Z,11.50
2018-04-19T07:02:45.693Z,11.10
2018-04-19T07:03:45.687Z,11.30
2018-04-19T07:04:45.677Z,11.00
2018-04-19T07:05:45.673Z,10.90
2018-04-19T07:06:45.669Z,11.10
2018-04-19T07:07:45.660Z,11.20
2018-04-19T07:08:45.658Z,11.70
2018-04-19T07:09:45.652Z,11.50
2018-04-19T07:10:45.646Z,10.90
2018-04-19T07:11:45.641Z,11.20
2018-04-19T07:12:45.637Z,11.20
2018-04-19T07:13:45.631Z,11.20
2018-04-19T07:14:45.653Z,12.00
2018-04-19T07:15:45.618Z,11.30
2018-04-19T07:16:45.614Z,11.20
2018-04-19T07:17:45.609Z,11.00
2018-04-19T07:18:45.603Z,11.30
2018-04-19T07:19:45.599Z,11.10
2018-04-19T07:20:45.594Z,10.80
2018-04-19T07:21:45.588Z,10.70
2018-04-19T07:22:45.586Z,10.90
2018-04-19T07:23:45.582Z,11.20
2018-04-19T07:24:45.571Z,11.40
2018-04-19T07:25:45.581Z,11.00
2018-04-19T07:26:45.565Z,10.90
2018-04-19T07:27:45.552Z,11.50
2018-04-19T07:28:45.551Z,11.30
2018-04-19T07:29:45.550Z,11.80
2018-04-19T07:30:45.544Z,10.70
2018-04-19T07:31:45.538Z,11.70
2018-04-19T07:32:45.530Z,12.00
2018-04-19T07:33:45.527Z,11.40
2018-04-19T07:34:45.529Z,10.80
2018-04-19T07:35:45.520Z,11.40
2018-04-19T07:36:45.512Z,11.70
2018-04-19T07:37:45.507Z,11.60
2018-04-19T07:38:45.507Z,11.70
2018-04-19T07:39:45.497Z,11.60
2018-04-19T07:40:45.493Z,11.90
2018-04-19T07:41:45.492Z,11.90
2018-04-19T07:42:45.485Z,11.50
2018-04-19T07:43:45.479Z,12.40
2018-04-19T07:44:45.473Z,12.20
2018-04-19T07:45:45.470Z,11.80
2018-04-19T07:46:45.470Z,11.90
2018-04-19T07:47:45.462Z,11.90
2018-04-19T07:48:45.457Z,11.30
2018-04-19T07:49:45.451Z,11.90
2018-04-19T07:50:45.448Z,11.40
2018-04-19T07:51:45.443Z,11.50
2018-04-19T07:52:45.435Z,11.60
2018-04-19T07:53:45.431Z,12.40
2018-04-19T07:54:45.428Z,11.20
2018-04-19T07:55:45.421Z,11.50
2018-04-19T07:56:45.420Z,10.70
2018-04-19T07:57:45.416Z,10.20
2018-04-19T07:58:45.414Z,11.40
2018-04-19T07:59:45.405Z,10.90
2018-04-19T08:00:45.403Z,11.40
2018-04-19T08:01:45.398Z,10.60
2018-04-19T08:02:45.394Z,11.70
2018-04-19T08:03:45.393Z,12.20
2018-04-19T08:04:45.386Z,12.00
2018-04-19T08:05:45.381Z,11.60
2018-04-19T08:06:45.379Z,10.30
2018-04-19T08:07:45.370Z,10.70
2018-04-19T08:08:45.368Z,10.80
2018-04-19T08:09:45.366Z,10.50
2018-04-19T08:10:45.361Z,11.40
2018-04-19T08:11:45.356Z,11.10
2018-04-19T08:12:45.351Z,11.20
2018-04-19T08:13:45.348Z,11.80
2018-04-19T08:14:45.346Z,10.80
2018-04-19T08:15:45.341Z,12.00
2018-04-19T08:16:45.338Z,10.90
2018-04-19T08:17:45.332Z,10.30
2018-04-19T08:18:45.333Z,10.90
2018-04-19T08:19:45.324Z,11.20
2018-04-19T08:20:45.321Z,10.40
2018-04-19T08:21:45.319Z,11.20
2018-04-19T08:22:45.313Z,10.70
2018-04-19T08:23:45.311Z,10.70
2018-04-19T08:24:45.308Z,10.50
2018-04-19T08:25:45.304Z,11.00
2018-04-19T08:26:45.301Z,11.80
2018-04-19T08:27:45.296Z,11.50
2018-04-19T08:28:45.291Z,10.50
2018-04-19T08:29:45.290Z,9.90
2018-04-19T08:30:45.286Z,10.70
2018-04-19T08:31:45.282Z,10.10
2018-04-19T08:32:45.278Z,10.90
2018-04-19T08:33:45.276Z,11.40
2018-04-19T08:34:45.271Z,9.70
2018-04-19T08:35:45.266Z,9.90
2018-04-19T08:36:45.264Z,10.10
2018-04-19T08:37:45.261Z,9.80
2018-04-19T08:38:45.255Z,10.20
2018-04-19T08:39:45.253Z,10.10
2018-04-19T08:40:45.249Z,10.40
2018-04-19T08:41:45.245Z,10.10
2018-04-19T08:42:45.246Z,9.00
2018-04-19T08:43:45.238Z,9.40
2018-04-19T08:44:45.238Z,9.70
2018-04-19T08:45:45.232Z,10.00
2018-04-19T08:46:45.232Z,9.70
2018-04-19T08:47:45.228Z,10.20
2018-04-19T08:48:45.223Z,9.70
2018-04-19T08:49:45.227Z,9.80
2018-04-19T08:50:45.217Z,10.10
2018-04-19T08:51:45.212Z,9.20
2018-04-19T08:52:45.211Z,9.90
2018-04-19T08:53:45.207Z,10.20
2018-04-19T08:54:45.203Z,9.90
2018-04-19T08:55:45.201Z,9.30
2018-04-19T08:56:45.198Z,9.40
2018-04-19T08:57:45.195Z,9.80
2018-04-19T08:58:45.193Z,9.10
2018-04-19T08:59:45.185Z,9.80
2018-04-19T09:00:45.188Z,9.80
2018-04-19T09:01:45.184Z,9.20
2018-04-19T09:02:45.216Z,10.10
2018-04-19T09:03:45.178Z,10.30
2018-04-19T09:04:45.175Z,10.20
2018-04-19T09:05:45.170Z,8.60
2018-04-19T09:06:45.168Z,9.00
2018-04-19T09:07:45.165Z,10.00
2018-04-19T09:08:45.161Z,9.70
2018-04-19T09:09:45.160Z,8.90
2018-04-19T09:10:45.155Z,9.80
2018-04-19T09:11:45.153Z,8.80
2018-04-19T09:12:45.148Z,9.40
2018-04-19T09:13:45.150Z,9.30
2018-04-19T09:14:45.149Z,9.80
2018-04-19T09:15:45.144Z,10.00
2018-04-19T09:16:45.141Z,9.90
2018-04-19T09:17:45.146Z,9.70
2018-04-19T09:18:45.136Z,9.40
2018-04-19T09:19:45.129Z,9.40
2018-04-19T09:20:45.129Z,8.70
2018-04-19T09:21:45.129Z,9.60
2018-04-19T09:22:45.125Z,9.00
2018-04-19T09:23:45.121Z,9.70
2018-04-19T09:24:45.120Z,8.90
2018-04-19T09:25:45.118Z,9.00
2018-04-19T09:26:45.134Z,9.80
2018-04-19T09:27:45.110Z,8.70
2018-04-19T09:28:45.107Z,9.50
2018-04-19T09:29:45.106Z,9.40
2018-04-19T09:30:45.104Z,9.40
2018-04-19T09:31:45.103Z,8.60
2018-04-19T09:32:45.098Z,9.80
2018-04-19T09:33:45.099Z,9.60
2018-04-19T09:34:45.093Z,9.20
2018-04-19T09:35:45.104Z,9.30
2018-04-19T09:36:45.087Z,9.30
2018-04-19T09:37:45.091Z,8.90
2018-04-19T09:38:45.124Z,9.10
2018-04-19T09:39:45.079Z,9.40
2018-04-19T09:40:45.080Z,8.50
2018-04-19T09:41:45.077Z,9.60
2018-04-19T09:42:45.072Z,9.30
2018-04-19T09:43:45.069Z,8.70
2018-04-19T09:44:45.072Z,8.50
2018-04-19T09:45:45.065Z,9.00
2018-04-19T09:46:45.071Z,8.30
2018-04-19T09:47:45.060Z,8.90
2018-04-19T09:48:45.057Z,8.30
2018-04-19T09:49:45.053Z,8.50
2018-04-19T09:50:45.051Z,9.40
2018-04-19T09:51:45.048Z,9.00
2018-04-19T09:52:45.047Z,8.70
2018-04-19T09:53:45.057Z,8.50
2018-04-19T09:54:45.040Z,8.70
2018-04-19T09:55:45.038Z,8.80
2018-04-19T09:56:45.034Z,8.60
2018-04-19T09:57:45.039Z,8.80
2018-04-19T09:58:45.035Z,8.90
2018-04-19T09:59:45.028Z,8.70
2018-04-19T10:00:45.025Z,8.10
2018-04-19T10:01:45.022Z,8.90
2018-04-19T10:02:45.016Z,9.10
2018-04-19T10:03:45.015Z,8.90
2018-04-19T10:04:45.012Z,8.70
2018-04-19T10:05:45.008Z,8.40
2018-04-19T10:06:45.008Z,8.60
2018-04-19T10:07:45.011Z,8.20
2018-04-19T10:08:45.004Z,8.40
2018-04-19T10:09:44.996Z,7.80
2018-04-19T10:10:44.995Z,7.80
2018-04-19T10:11:44.992Z,8.60
2018-04-19T10:12:44.988Z,8.40
2018-04-19T10:13:44.987Z,8.50
2018-04-19T10:14:44.986Z,8.30
2018-04-19T10:15:44.981Z,8.80
2018-04-19T10:16:44.982Z,8.00
2018-04-19T10:17:44.976Z,8.30
2018-04-19T10:18:44.975Z,8.30
2018-04-19T10:19:44.970Z,8.20
2018-04-19T10:20:44.970Z,7.90
2018-04-19T10:21:44.969Z,8.10
2018-04-19T10:22:44.966Z,7.60
2018-04-19T10:23:44.964Z,7.40
2018-04-19T10:24:44.959Z,7.80
2018-04-19T10:25:44.957Z,8.10
2018-04-19T10:26:44.955Z,8.00
2018-04-19T10:27:44.954Z,7.70
2018-04-19T10:28:44.952Z,8.00
2018-04-19T10:29:44.949Z,8.70
2018-04-19T10:30:44.950Z,8.00
2018-04-19T10:31:44.947Z,7.90
2018-04-19T10:32:44.944Z,7.80
2018-04-19T10:38:55.220Z,8.90
2018-04-19T10:39:54.936Z,8.20
2018-04-19T10:40:54.925Z,8.10
2018-04-19T10:41:54.920Z,8.00
2018-04-19T10:42:54.919Z,8.00
2018-04-19T10:43:54.917Z,8.50
2018-04-19T10:44:54.920Z,8.40
2018-04-19T10:45:54.931Z,8.10
2018-04-19T10:46:54.916Z,8.00
2018-04-19T10:47:54.914Z,8.30
2018-04-19T10:48:54.916Z,7.40
2018-04-19T10:49:54.915Z,8.30
2018-04-19T10:50:54.916Z,8.20
2018-04-19T10:51:54.915Z,7.50
2018-04-19T10:52:54.913Z,8.30
2018-04-19T10:53:54.912Z,7.40
2018-04-19T10:54:54.914Z,6.70
2018-04-19T10:55:54.918Z,6.40
2018-04-19T10:56:54.914Z,7.10
2018-04-19T10:57:54.917Z,6.60
2018-04-19T10:58:54.921Z,6.90
2018-04-19T10:59:54.915Z,6.70
2018-04-19T11:00:54.923Z,6.60
2018-04-19T11:01:54.916Z,6.30
2018-04-19T11:02:54.918Z,7.00
2018-04-19T11:03:54.915Z,6.40
2018-04-19T11:04:54.920Z,6.60
2018-04-19T11:05:54.920Z,6.60
2018-04-19T11:06:54.919Z,6.40
2018-04-19T11:07:54.920Z,6.10
2018-04-19T11:08:54.923Z,6.10
2018-04-19T11:09:54.923Z,7.30
2018-04-19T11:10:54.924Z,6.70
2018-04-19T11:11:54.923Z,6.30
2018-04-19T11:12:54.924Z,6.20
2018-04-19T11:13:54.930Z,6.00
2018-04-19T11:14:54.926Z,5.30
2018-04-19T11:15:54.978Z,6.10
2018-04-19T11:16:54.929Z,7.30
2018-04-19T11:17:54.927Z,7.00
2018-04-19T11:18:54.930Z,6.60
2018-04-19T11:19:54.931Z,6.50
2018-04-19T11:20:54.930Z,6.70
2018-04-19T11:21:54.934Z,5.70
2018-04-19T11:22:54.933Z,6.00
2018-04-19T11:23:54.935Z,6.40
2018-04-19T11:24:54.937Z,6.40
2018-04-19T11:25:54.937Z,6.10
2018-04-19T11:26:54.938Z,5.70
2018-04-19T11:27:54.936Z,5.60
2018-04-19T11:28:54.941Z,5.60
2018-04-19T11:29:54.939Z,5.20
2018-04-19T11:30:54.978Z,5.20
2018-04-19T11:31:54.943Z,3.90
2018-04-19T11:32:54.942Z,4.80
2018-04-19T11:33:54.944Z,4.10
2018-04-19T11:34:54.944Z,4.00
2018-04-19T11:35:54.952Z,4.00
2018-04-19T11:36:54.947Z,4.30
2018-04-19T11:37:54.948Z,4.30
2018-04-19T11:38:54.952Z,4.30
2018-04-19T11:39:54.952Z,4.40
2018-04-19T11:40:54.952Z,4.00
2018-04-19T11:41:54.954Z,5.10
2018-04-19T11:42:54.956Z,4.40
2018-04-19T11:43:54.959Z,4.80
2018-04-19T11:44:54.958Z,4.70
2018-04-19T11:45:54.961Z,5.30
2018-04-19T11:46:54.964Z,5.00
2018-04-19T11:47:54.969Z,4.90
2018-04-19T11:48:54.965Z,5.60
2018-04-19T11:49:54.967Z,5.00
2018-04-19T11:50:54.964Z,4.80
2018-04-19T11:51:55.575Z,4.90
2018-04-19T11:52:54.973Z,4.40
2018-04-19T11:53:54.982Z,5.00
2018-04-19T11:54:55.581Z,5.50
2018-04-19T11:55:54.977Z,5.10
2018-04-19T11:56:54.979Z,5.20
2018-04-19T11:57:54.982Z,5.20
2018-04-19T11:58:54.980Z,4.80
2018-04-19T11:59:54.986Z,4.80
2018-04-19T12:00:54.999Z,4.50
2018-04-19T12:01:54.988Z,4.50
2018-04-19T12:02:54.986Z,4.70
2018-04-19T12:03:54.989Z,4.70
2018-04-19T12:04:54.988Z,4.40
2018-04-19T12:05:54.990Z,4.80
2018-04-19T12:06:54.988Z,4.70
2018-04-19T12:07:54.990Z,5.50
2018-04-19T12:08:54.992Z,5.40
2018-04-19T12:09:54.992Z,5.30
2018-04-19T12:10:54.994Z,5.30
2018-04-19T12:11:54.991Z,5.10
2018-04-19T12:12:54.995Z,4.80
2018-04-19T12:13:54.991Z,5.00
2018-04-19T12:14:54.993Z,4.40
2018-04-19T12:15:54.993Z,4.90
2018-04-19T12:16:54.993Z,4.80
2018-04-19T12:17:54.992Z,4.30
2018-04-19T12:18:54.993Z,4.40
2018-04-19T12:19:54.993Z,4.40
2018-04-19T12:20:54.993Z,4.70
2018-04-19T12:21:54.994Z,4.60
2018-04-19T12:22:54.995Z,4.60
2018-04-19T12:23:54.992Z,5.00
2018-04-19T12:24:54.996Z,4.70
2018-04-19T12:25:55.003Z,5.20
2018-04-19T12:26:54.998Z,4.20
2018-04-19T12:27:54.997Z,4.90
2018-04-19T12:28:54.994Z,4.20
2018-04-19T12:29:54.993Z,5.20
2018-04-19T12:30:54.995Z,4.80
2018-04-19T12:31:54.998Z,4.60
2018-04-19T12:32:54.995Z,4.90
2018-04-19T12:33:54.996Z,4.90
2018-04-19T12:34:54.995Z,4.80
2018-04-19T12:35:54.999Z,5.00
2018-04-19T12:36:54.996Z,4.40
2018-04-19T12:37:55.000Z,4.90
2018-04-19T12:38:54.997Z,4.30
2018-04-19T12:39:54.998Z,4.80
2018-04-19T12:40:55.000Z,4.90
2018-04-19T12:41:54.996Z,4.40
2018-04-19T12:42:54.995Z,4.60
2018-04-19T12:43:55.002Z,4.40
2018-04-19T12:44:54.999Z,4.00
2018-04-19T12:45:54.999Z,4.10
2018-04-19T12:46:55.000Z,3.90
2018-04-19T12:47:54.997Z,4.30
2018-04-19T12:48:55.003Z,4.50
2018-04-19T12:49:55.002Z,4.40
2018-04-19T12:50:55.000Z,4.60
2018-04-19T12:51:55.002Z,4.10
2018-04-19T12:52:55.009Z,3.90
2018-04-19T12:53:55.002Z,4.10
2018-04-19T12:54:55.003Z,3.80
2018-04-19T12:55:55.005Z,3.80
2018-04-19T12:56:55.004Z,3.40
2018-04-19T12:57:55.007Z,3.20
2018-04-19T12:58:55.007Z,3.30
2018-04-19T12:59:55.006Z,3.80
2018-04-19T13:00:55.006Z,3.20
2018-04-19T13:01:55.009Z,2.80
2018-04-19T13:02:55.008Z,2.70
2018-04-19T13:03:55.011Z,3.00
2018-04-19T13:04:55.008Z,2.80
2018-04-19T13:05:55.014Z,2.70
2018-04-19T13:06:55.013Z,3.00
2018-04-19T13:07:55.013Z,2.60
2018-04-19T13:08:55.009Z,2.40
2018-04-19T13:09:55.009Z,2.80
2018-04-19T13:10:55.011Z,2.60
2018-04-19T13:11:55.009Z,2.40
2018-04-19T13:12:55.070Z,2.20
2018-04-19T13:13:55.013Z,2.10
2018-04-19T13:14:55.011Z,2.20
2018-04-19T13:15:55.011Z,2.30